createdAt,value
2018-12-25T00:04:33.484Z,5.00
2018-12-25T00:07:02.056Z,5.10
2018-12-25T00:09:50.019Z,5.10
2018-12-25T00:12:37.917Z,5.10
2018-12-25T00:15:25.850Z,5.10
2018-12-25T00:18:13.881Z,5.10
2018-12-25T00:20:54.732Z,5.10
2018-12-25T00:23:36.072Z,5.10
2018-12-25T00:26:04.639Z,5.10
2018-12-25T00:28:52.605Z,5.10
2018-12-25T00:31:40.500Z,5.10
2018-12-25T00:34:09.099Z,5.10
2018-12-25T00:36:57.007Z,5.10
2018-12-25T00:39:44.944Z,5.10
2018-12-25T00:42:32.913Z,5.10
2018-12-25T00:45:20.793Z,5.10
2018-12-25T00:48:08.762Z,5.00
2018-12-25T00:50:56.690Z,5.00
2018-12-25T00:53:44.633Z,4.90
2018-12-25T00:56:32.532Z,4.90
2018-12-25T00:59:20.548Z,4.80
2018-12-25T01:02:08.441Z,4.80
2018-12-25T01:04:49.650Z,4.80
2018-12-25T01:07:30.101Z,4.80
2018-12-25T01:10:10.701Z,4.80
2018-12-25T01:12:51.504Z,4.80
2018-12-25T01:15:33.389Z,4.70
2018-12-25T01:18:14.598Z,4.70
2018-12-25T01:20:55.566Z,4.70
2018-12-25T01:23:36.928Z,4.70
2018-12-25T01:26:17.913Z,4.70
2018-12-25T01:28:59.171Z,4.90
2018-12-25T01:31:39.904Z,4.70
2018-12-25T01:34:20.246Z,4.60
2018-12-25T01:37:01.257Z,4.60
2018-12-25T01:39:42.233Z,4.60
2018-12-25T01:42:22.938Z,4.60
2018-12-25T01:45:03.579Z,4.60
2018-12-25T01:47:44.078Z,4.60
2018-12-25T01:50:24.558Z,4.60
2018-12-25T01:53:05.285Z,4.60
2018-12-25T01:55:45.846Z,4.60
2018-12-25T01:58:26.691Z,4.60
2018-12-25T02:00:55.829Z,4.60
2018-12-25T02:03:24.449Z,4.60
2018-12-25T02:05:53.091Z,4.60
2018-12-25T02:08:21.679Z,4.60
2018-12-25T02:10:51.199Z,4.60
2018-12-25T02:13:39.103Z,4.50
2018-12-25T02:16:27.078Z,4.50
2018-12-25T02:19:14.990Z,4.50
2018-12-25T02:22:02.954Z,4.60
2018-12-25T02:24:50.914Z,4.60
2018-12-25T02:27:38.872Z,4.60
2018-12-25T02:30:19.607Z,4.60
2018-12-25T02:33:00.444Z,4.60
2018-12-25T02:35:41.400Z,4.70
2018-12-25T02:38:22.420Z,4.70
2018-12-25T02:41:03.049Z,4.70
2018-12-25T02:43:43.517Z,4.70
2018-12-25T02:46:24.122Z,4.70
2018-12-25T02:49:04.958Z,4.70
2018-12-25T02:51:45.469Z,4.70
2018-12-25T02:54:26.765Z,4.70
2018-12-25T02:57:07.631Z,4.80
2018-12-25T02:59:48.255Z,4.80
2018-12-25T03:02:28.853Z,4.80
2018-12-25T03:05:09.877Z,4.80
2018-12-25T03:07:50.578Z,4.80
2018-12-25T03:10:31.065Z,4.90
2018-12-25T03:13:12.355Z,4.90
2018-12-25T03:18:41.904Z,4.90
2018-12-25T03:21:22.414Z,4.90
2018-12-25T03:24:03.405Z,4.90
2018-12-25T03:26:44.441Z,4.90
2018-12-25T03:29:25.656Z,4.90
2018-12-25T03:32:06.702Z,4.90
2018-12-25T03:34:47.545Z,5.00
2018-12-25T03:37:28.219Z,5.00
2018-12-25T03:40:09.539Z,5.00
2018-12-25T03:42:50.251Z,5.00
2018-12-25T03:45:31.168Z,5.00
2018-12-25T03:50:55.252Z,5.00
2018-12-25T03:53:36.373Z,5.00
2018-12-25T03:56:17.444Z,5.00
2018-12-25T03:58:57.817Z,5.00
2018-12-25T04:01:38.656Z,5.00
2018-12-25T04:04:19.546Z,5.00
2018-12-25T04:07:00.030Z,5.00
2018-12-25T04:09:40.462Z,5.00
2018-12-25T04:12:20.871Z,5.10
2018-12-25T04:15:01.480Z,5.00
2018-12-25T04:17:41.796Z,5.00
2018-12-25T04:20:19.556Z,5.00
2018-12-25T04:23:00.098Z,5.00
2018-12-25T04:25:47.997Z,5.00
2018-12-25T04:28:16.602Z,5.00
2018-12-25T04:30:45.165Z,5.00
2018-12-25T04:33:13.726Z,5.00
2018-12-25T04:35:42.336Z,5.00
2018-12-25T04:38:10.964Z,5.00
2018-12-25T04:40:39.605Z,5.00
2018-12-25T04:43:27.605Z,5.00
2018-12-25T04:46:15.510Z,5.00
2018-12-25T04:49:03.502Z,5.00
2018-12-25T04:51:51.453Z,5.00
2018-12-25T04:54:53.785Z,5.00
2018-12-25T04:57:29.032Z,4.90
2018-12-25T05:00:16.997Z,4.90
2018-12-25T05:03:04.873Z,4.90
2018-12-25T05:05:52.835Z,4.90
2018-12-25T05:08:21.381Z,4.90
2018-12-25T05:10:49.992Z,4.90
2018-12-25T05:13:37.892Z,4.90
2018-12-25T05:16:25.849Z,4.90
2018-12-25T05:19:13.788Z,4.90
2018-12-25T05:22:01.737Z,4.90
2018-12-25T05:24:49.640Z,4.90
2018-12-25T05:27:37.590Z,4.90
2018-12-25T05:30:25.503Z,5.00
2018-12-25T05:33:25.103Z,5.00
2018-12-25T05:35:56.633Z,5.00
2018-12-25T05:38:37.694Z,5.00
2018-12-25T05:41:19.040Z,5.00
2018-12-25T05:44:00.347Z,5.00
2018-12-25T05:46:41.969Z,5.00
2018-12-25T05:49:22.779Z,5.00
2018-12-25T05:52:03.181Z,5.10
2018-12-25T05:54:44.278Z,5.10
2018-12-25T05:57:25.202Z,5.10
2018-12-25T06:03:04.848Z,5.20
2018-12-25T06:05:45.569Z,5.20
2018-12-25T06:08:26.168Z,5.20
2018-12-25T06:11:07.165Z,5.30
2018-12-25T06:13:48.490Z,5.40
2018-12-25T06:16:30.617Z,5.40
2018-12-25T06:19:11.573Z,5.40
2018-12-25T06:21:52.617Z,5.40
2018-12-25T06:24:33.738Z,5.40
2018-12-25T06:27:14.758Z,5.40
2018-12-25T06:29:55.689Z,5.40
2018-12-25T06:32:34.766Z,5.40
2018-12-25T06:35:15.785Z,5.40
2018-12-25T06:37:56.949Z,5.40
2018-12-25T06:40:44.753Z,5.30
2018-12-25T06:43:32.665Z,5.30
2018-12-25T06:46:20.608Z,5.20
2018-12-25T06:49:08.517Z,5.20
2018-12-25T06:51:56.481Z,5.20
2018-12-25T06:54:44.384Z,5.20
2018-12-25T06:57:32.325Z,5.10
2018-12-25T07:00:20.229Z,5.10
2018-12-25T07:03:08.186Z,5.10
2018-12-25T07:05:56.708Z,5.10
2018-12-25T07:08:44.621Z,5.10
2018-12-25T07:11:32.533Z,5.10
2018-12-25T07:14:20.490Z,5.10
2018-12-25T07:17:08.387Z,5.10
2018-12-25T07:19:56.373Z,5.10
2018-12-25T07:22:44.273Z,5.20
2018-12-25T07:25:32.217Z,5.20
2018-12-25T07:28:20.120Z,5.20
2018-12-25T07:31:08.078Z,5.20
2018-12-25T07:33:56.032Z,5.20
2018-12-25T07:36:24.932Z,5.20
2018-12-25T07:38:53.613Z,5.20
2018-12-25T07:41:22.137Z,5.30
2018-12-25T07:44:10.092Z,5.30
2018-12-25T07:50:07.024Z,5.30
2018-12-25T07:52:55.022Z,5.30
2018-12-25T07:55:42.969Z,5.30
2018-12-25T07:58:30.969Z,5.30
2018-12-25T08:01:19.477Z,5.30
2018-12-25T08:04:22.394Z,5.30
2018-12-25T08:06:57.694Z,5.40
2018-12-25T08:09:45.596Z,5.40
2018-12-25T08:12:33.542Z,5.40
2018-12-25T08:15:21.442Z,5.40
2018-12-25T08:17:50.098Z,5.50
2018-12-25T08:20:38.008Z,5.50
2018-12-25T08:23:25.989Z,5.60
2018-12-25T08:25:55.502Z,5.60
2018-12-25T08:28:43.601Z,5.60
2018-12-25T08:31:12.176Z,5.70
2018-12-25T08:34:00.153Z,5.70
2018-12-25T08:36:28.746Z,5.80
2018-12-25T08:41:52.307Z,5.80
2018-12-25T08:47:17.138Z,6.00
2018-12-25T08:49:57.578Z,6.00
2018-12-25T08:52:38.431Z,6.00
2018-12-25T08:55:18.717Z,6.10
2018-12-25T08:58:00.017Z,6.10
2018-12-25T09:00:41.195Z,6.10
2018-12-25T09:03:22.069Z,6.10
2018-12-25T09:06:02.617Z,6.20
2018-12-25T09:08:43.245Z,6.20
2018-12-25T09:11:24.005Z,6.30
2018-12-25T09:14:04.534Z,6.70
2018-12-25T09:16:45.879Z,7.20
2018-12-25T09:19:27.527Z,7.50
2018-12-25T09:24:51.251Z,7.10
2018-12-25T09:27:31.936Z,6.90
2018-12-25T09:30:13.181Z,6.80
2018-12-25T09:32:54.231Z,6.70
2018-12-25T09:35:35.121Z,6.60
2018-12-25T09:38:16.033Z,6.60
2018-12-25T09:40:56.491Z,6.60
2018-12-25T09:43:36.955Z,6.70
2018-12-25T09:46:17.758Z,6.70
2018-12-25T09:48:58.901Z,6.70
2018-12-25T09:51:39.459Z,6.70
2018-12-25T09:54:20.505Z,6.70
2018-12-25T09:57:01.212Z,6.70
2018-12-25T09:59:41.792Z,6.70
2018-12-25T10:02:22.649Z,6.70
2018-12-25T10:05:02.970Z,6.70
2018-12-25T10:07:31.528Z,6.70
2018-12-25T10:10:00.163Z,6.70
2018-12-25T10:12:28.690Z,6.70
2018-12-25T10:15:16.728Z,6.80
2018-12-25T10:18:04.632Z,6.80
2018-12-25T10:20:52.580Z,6.90
2018-12-25T10:26:47.397Z,6.90
2018-12-25T10:29:35.307Z,7.00
2018-12-25T10:32:23.240Z,7.00
2018-12-25T10:35:25.726Z,7.10
2018-12-25T10:38:00.751Z,7.10
2018-12-25T10:40:29.353Z,7.10
2018-12-25T10:43:17.262Z,7.10
2018-12-25T10:46:05.219Z,7.10
2018-12-25T10:48:53.119Z,7.10
2018-12-25T10:51:41.065Z,7.20
2018-12-25T10:54:28.964Z,7.10
2018-12-25T10:57:17.030Z,7.10
2018-12-25T11:00:24.246Z,7.10
2018-12-25T11:03:13.149Z,7.10
2018-12-25T11:06:01.737Z,7.10
2018-12-25T11:08:49.685Z,7.10
2018-12-25T11:14:44.504Z,7.20
2018-12-25T11:17:32.409Z,7.20
2018-12-25T11:20:20.372Z,7.20
2018-12-25T11:23:08.270Z,7.20
2018-12-25T11:25:56.213Z,7.20
2018-12-25T11:28:44.489Z,7.20
2018-12-25T11:31:32.503Z,7.20
2018-12-25T11:34:20.403Z,7.20
2018-12-25T11:36:49.015Z,7.20
2018-12-25T11:39:36.920Z,7.20
2018-12-25T11:42:05.548Z,7.20
2018-12-25T11:47:27.874Z,7.20
2018-12-25T11:49:56.435Z,7.20
2018-12-25T11:52:44.407Z,7.20
2018-12-25T11:55:32.398Z,7.20
2018-12-25T11:58:20.357Z,7.20
2018-12-25T12:01:08.261Z,7.20
2018-12-25T12:03:56.222Z,7.20
2018-12-25T12:06:44.114Z,7.30
2018-12-25T12:09:32.054Z,7.30
2018-12-25T12:12:20.001Z,7.40
2018-12-25T12:15:07.963Z,7.40
2018-12-25T12:17:55.874Z,7.40
2018-12-25T12:20:43.813Z,7.50
2018-12-25T12:23:31.725Z,7.50
2018-12-25T12:26:19.671Z,7.50
2018-12-25T12:31:55.153Z,7.50
2018-12-25T12:34:23.717Z,7.60
2018-12-25T12:36:52.276Z,7.60
2018-12-25T12:39:20.884Z,7.50
2018-12-25T12:41:49.445Z,7.50
2018-12-25T12:44:37.397Z,7.50
2018-12-25T12:47:25.293Z,7.50
2018-12-25T12:50:13.292Z,7.50
2018-12-25T12:53:01.204Z,7.50
2018-12-25T12:55:49.148Z,7.50
2018-12-25T12:58:37.044Z,7.50
2018-12-25T13:01:25.113Z,7.40
2018-12-25T13:04:13.033Z,7.40
2018-12-25T13:07:00.989Z,7.50
2018-12-25T13:09:48.977Z,7.50
2018-12-25T13:12:36.913Z,7.50
2018-12-25T13:15:24.816Z,7.40
2018-12-25T13:18:12.770Z,7.40
2018-12-25T13:21:00.668Z,7.40
2018-12-25T13:23:49.305Z,7.40
2018-12-25T13:26:37.256Z,7.40
2018-12-25T13:29:25.155Z,7.40
2018-12-25T13:32:13.085Z,7.40
2018-12-25T13:35:00.981Z,7.40
2018-12-25T13:37:49.521Z,7.40
2018-12-25T13:40:37.420Z,7.40
2018-12-25T13:43:26.996Z,7.40
2018-12-25T13:46:07.610Z,7.40
2018-12-25T13:48:48.578Z,7.40
2018-12-25T13:51:29.904Z,7.40
2018-12-25T13:54:10.457Z,7.40
2018-12-25T13:56:51.061Z,7.40
2018-12-25T13:59:31.697Z,7.30
2018-12-25T14:02:13.012Z,7.30
2018-12-25T14:04:53.941Z,7.30
2018-12-25T14:07:34.988Z,7.30
2018-12-25T14:10:15.497Z,7.30
2018-12-25T14:12:55.913Z,7.30
2018-12-25T14:15:37.212Z,7.30
2018-12-25T14:18:17.644Z,7.30
2018-12-25T14:20:58.729Z,7.30
2018-12-25T14:23:39.097Z,7.20
2018-12-25T14:26:20.161Z,7.20
2018-12-25T14:29:00.854Z,7.20
2018-12-25T14:31:41.261Z,7.20
2018-12-25T14:34:21.653Z,7.20
2018-12-25T14:37:02.309Z,7.10
2018-12-25T14:39:42.953Z,7.20
2018-12-25T14:42:24.250Z,7.20
2018-12-25T14:45:05.293Z,7.20
2018-12-25T14:47:46.718Z,7.10
2018-12-25T14:50:27.933Z,7.10
2018-12-25T14:53:08.338Z,7.00
2018-12-25T14:55:49.530Z,7.00
2018-12-25T14:58:30.869Z,7.00
2018-12-25T15:01:11.694Z,7.00
2018-12-25T15:03:52.989Z,7.00
2018-12-25T15:06:33.697Z,7.00
2018-12-25T15:09:14.584Z,7.00
2018-12-25T15:11:55.357Z,7.00
2018-12-25T15:14:36.722Z,6.90
2018-12-25T15:17:17.961Z,6.90
2018-12-25T15:19:58.687Z,6.90
2018-12-25T15:22:40.726Z,6.90
2018-12-25T15:25:21.449Z,6.90
2018-12-25T15:28:01.865Z,6.90
2018-12-25T15:30:42.452Z,6.90
2018-12-25T15:33:22.845Z,6.90
2018-12-25T15:36:03.688Z,6.90
2018-12-25T15:38:44.161Z,6.90
2018-12-25T15:41:24.806Z,6.90
2018-12-25T15:44:05.825Z,6.90
2018-12-25T15:46:46.224Z,6.90
2018-12-25T15:49:27.222Z,6.90
2018-12-25T15:52:08.554Z,6.80
2018-12-25T15:54:49.019Z,6.80
2018-12-25T15:57:32.820Z,6.80
2018-12-25T16:00:14.009Z,6.80
2018-12-25T16:02:55.414Z,6.90
2018-12-25T16:05:35.939Z,6.80
2018-12-25T16:08:16.585Z,6.90
2018-12-25T16:10:57.533Z,6.90
2018-12-25T16:13:37.944Z,6.90
2018-12-25T16:16:18.929Z,6.90
2018-12-25T16:18:59.258Z,6.90
2018-12-25T16:21:39.610Z,6.80
2018-12-25T16:24:27.276Z,6.90
2018-12-25T16:27:03.524Z,6.90
2018-12-25T16:29:44.741Z,6.90
2018-12-25T16:32:13.305Z,6.90
2018-12-25T16:34:41.928Z,6.80
2018-12-25T16:37:10.500Z,6.80
2018-12-25T16:39:39.064Z,6.80
2018-12-25T16:42:07.673Z,6.80
2018-12-25T16:44:55.569Z,6.80
2018-12-25T16:47:43.517Z,6.80
2018-12-25T16:50:12.089Z,6.80
2018-12-25T16:53:00.056Z,6.80
2018-12-25T16:55:47.962Z,6.80
2018-12-25T16:58:29.244Z,6.80
2018-12-25T17:01:10.280Z,6.80
2018-12-25T17:03:38.833Z,6.80
2018-12-25T17:06:07.444Z,6.80
2018-12-25T17:08:35.998Z,6.80
2018-12-25T17:11:04.562Z,6.80
2018-12-25T17:13:52.508Z,6.80
2018-12-25T17:16:40.410Z,6.80
2018-12-25T17:19:28.361Z,6.80
2018-12-25T17:22:16.265Z,6.80
2018-12-25T17:25:04.284Z,6.90
2018-12-25T17:27:52.196Z,6.90
2018-12-25T17:30:40.145Z,6.90
2018-12-25T17:33:28.055Z,6.90
2018-12-25T17:36:16.064Z,6.90
2018-12-25T17:39:24.687Z,6.90
2018-12-25T17:41:53.276Z,6.90
2018-12-25T17:44:41.221Z,6.80
2018-12-25T17:50:36.038Z,6.80
2018-12-25T17:53:23.933Z,6.80
2018-12-25T17:56:11.878Z,6.70
2018-12-25T17:58:52.861Z,6.70
2018-12-25T18:01:33.417Z,6.70
2018-12-25T18:04:14.705Z,6.70
2018-12-25T18:06:43.321Z,6.60
2018-12-25T18:09:31.271Z,6.60
2018-12-25T18:12:19.164Z,6.60
2018-12-25T18:15:07.105Z,6.60
2018-12-25T18:17:55.000Z,6.60
2018-12-25T18:20:42.789Z,6.60
2018-12-25T18:23:11.349Z,6.60
2018-12-25T18:25:59.292Z,6.60
2018-12-25T18:28:47.193Z,6.60
2018-12-25T18:31:35.155Z,6.60
2018-12-25T18:34:23.048Z,6.60
2018-12-25T18:37:10.999Z,6.60
2018-12-25T18:39:58.904Z,6.60
2018-12-25T18:43:00.720Z,6.60
2018-12-25T18:45:36.393Z,6.70
2018-12-25T18:51:17.738Z,6.60
2018-12-25T18:54:05.677Z,6.60
2018-12-25T18:56:53.588Z,6.60
2018-12-25T18:59:34.106Z,6.60
2018-12-25T19:02:15.237Z,6.60
2018-12-25T19:04:55.916Z,6.60
2018-12-25T19:07:24.468Z,6.60
2018-12-25T19:09:53.299Z,6.60
2018-12-25T19:12:21.911Z,6.60
2018-12-25T19:15:29.149Z,6.60
2018-12-25T19:18:17.119Z,6.60
2018-12-25T19:21:05.005Z,6.60
2018-12-25T19:24:13.677Z,6.60
2018-12-25T19:27:01.578Z,6.60
2018-12-25T19:29:49.536Z,6.60
2018-12-25T19:32:43.771Z,6.60
2018-12-25T19:35:27.798Z,6.70
2018-12-25T19:38:16.165Z,6.60
2018-12-25T19:41:05.689Z,6.60
2018-12-25T19:43:53.602Z,6.60
2018-12-25T19:46:41.556Z,6.60
2018-12-25T19:49:29.464Z,6.60
2018-12-25T19:52:17.427Z,6.60
2018-12-25T19:55:06.112Z,6.60
2018-12-25T19:57:54.083Z,6.60
2018-12-25T20:00:35.237Z,6.60
2018-12-25T20:03:16.265Z,6.60
2018-12-25T20:05:57.194Z,6.60
2018-12-25T20:08:38.160Z,6.50
2018-12-25T20:11:18.686Z,6.60
2018-12-25T20:13:59.949Z,6.50
2018-12-25T20:16:41.142Z,6.50
2018-12-25T20:19:22.277Z,6.60
2018-12-25T20:22:03.356Z,6.60
2018-12-25T20:24:44.189Z,6.50
2018-12-25T20:27:25.422Z,7.00
2018-12-25T20:30:05.971Z,7.40
2018-12-25T20:32:46.728Z,7.50
2018-12-25T20:35:28.015Z,7.70
2018-12-25T20:38:08.519Z,7.80
2018-12-25T20:40:49.283Z,7.90
2018-12-25T20:43:29.773Z,7.90
2018-12-25T20:46:10.829Z,8.00
2018-12-25T20:48:52.167Z,8.00
2018-12-25T20:51:33.219Z,8.00
2018-12-25T20:54:14.289Z,8.00
2018-12-25T20:56:54.993Z,7.80
2018-12-25T20:59:35.857Z,7.60
2018-12-25T21:02:16.690Z,7.30
2018-12-25T21:04:58.234Z,7.20
2018-12-25T21:07:39.561Z,7.10
2018-12-25T21:10:20.531Z,6.90
2018-12-25T21:13:01.003Z,6.90
2018-12-25T21:15:41.992Z,6.80
2018-12-25T21:18:23.439Z,6.80
2018-12-25T21:21:08.754Z,6.80
2018-12-25T21:23:49.982Z,6.70
2018-12-25T21:26:30.947Z,6.70
2018-12-25T21:29:12.129Z,6.70
2018-12-25T21:31:54.575Z,6.70
2018-12-25T21:37:20.339Z,6.70
2018-12-25T21:40:02.494Z,6.70
2018-12-25T21:42:43.770Z,6.70
2018-12-25T21:45:26.452Z,6.70
2018-12-25T21:48:08.155Z,6.70
2018-12-25T21:50:51.789Z,6.70
2018-12-25T21:53:32.424Z,6.60
2018-12-25T21:56:13.531Z,6.60
2018-12-25T21:58:55.237Z,6.60
2018-12-25T22:01:37.490Z,6.60
2018-12-25T22:04:19.089Z,6.60
2018-12-25T22:07:00.246Z,6.60
2018-12-25T22:09:41.726Z,6.60
2018-12-25T22:12:22.248Z,6.60
2018-12-25T22:15:03.137Z,6.60
2018-12-25T22:17:44.417Z,6.60
2018-12-25T22:20:25.677Z,6.60
2018-12-25T22:23:06.273Z,6.60
2018-12-25T22:25:47.042Z,6.60
2018-12-25T22:28:27.798Z,6.50
2018-12-25T22:31:06.695Z,6.50
2018-12-25T22:33:54.590Z,6.50
2018-12-25T22:36:42.551Z,6.50
2018-12-25T22:39:31.165Z,6.50
2018-12-25T22:42:19.194Z,6.50
2018-12-25T22:45:07.593Z,6.40
2018-12-25T22:50:48.901Z,6.40
2018-12-25T22:53:38.371Z,6.40
2018-12-25T22:56:26.284Z,6.40
2018-12-25T22:59:14.304Z,6.40
2018-12-25T23:01:42.946Z,6.30
2018-12-25T23:07:19.137Z,6.30
2018-12-25T23:10:00.243Z,6.30
2018-12-25T23:12:40.654Z,6.30
2018-12-25T23:15:21.825Z,6.30
2018-12-25T23:18:02.355Z,6.30
2018-12-25T23:20:43.250Z,6.30
2018-12-25T23:23:24.927Z,6.30
2018-12-25T23:26:05.279Z,6.30
2018-12-25T23:28:46.064Z,6.30
2018-12-25T23:31:27.289Z,6.30
2018-12-25T23:34:08.213Z,6.30
2018-12-25T23:36:49.237Z,6.30
2018-12-25T23:39:30.076Z,6.30
2018-12-25T23:42:10.665Z,6.30
2018-12-25T23:44:51.486Z,6.20
2018-12-25T23:47:32.706Z,6.30
2018-12-25T23:50:13.677Z,6.30
2018-12-25T23:52:54.873Z,6.30
2018-12-25T23:55:36.157Z,6.30
2018-12-25T23:58:16.648Z,6.30
